sensor_id;sensor_type;location;lat;lon;timestamp;P1;durP1;ratioP1;P2;durP2;ratioP2
77984;SDS011;67177;47.240;-1.546;2023-05-07T00:02:21;4.18;;;1.20;;
77984;SDS011;67177;47.240;-1.546;2023-05-07T00:04:47;3.97;;;1.07;;
77984;SDS011;67177;47.240;-1.546;2023-05-07T00:07:13;4.35;;;1.10;;
77984;SDS011;67177;47.240;-1.546;2023-05-07T00:09:39;4.25;;;1.20;;
77984;SDS011;67177;47.240;-1.546;2023-05-07T00:12:05;4.60;;;1.20;;
77984;SDS011;67177;47.240;-1.546;2023-05-07T00:14:31;4.72;;;1.10;;
77984;SDS011;67177;47.240;-1.546;2023-05-07T00:16:57;4.63;;;1.10;;
77984;SDS011;67177;47.240;-1.546;2023-05-07T00:19:22;3.33;;;0.90;;
77984;SDS011;67177;47.240;-1.546;2023-05-07T00:21:48;4.63;;;1.30;;
77984;SDS011;67177;47.240;-1.546;2023-05-07T00:24:14;3.53;;;1.10;;
77984;SDS011;67177;47.240;-1.546;2023-05-07T00:26:40;3.83;;;1.00;;
77984;SDS011;67177;47.240;-1.546;2023-05-07T00:29:05;4.77;;;1.37;;
77984;SDS011;67177;47.240;-1.546;2023-05-07T00:31:31;6.10;;;1.52;;
77984;SDS011;67177;47.240;-1.546;2023-05-07T00:33:57;7.00;;;1.70;;
77984;SDS011;67177;47.240;-1.546;2023-05-07T00:36:22;5.43;;;1.70;;
77984;SDS011;67177;47.240;-1.546;2023-05-07T00:38:48;5.18;;;1.50;;
77984;SDS011;67177;47.240;-1.546;2023-05-07T00:41:13;6.10;;;2.10;;
77984;SDS011;67177;47.240;-1.546;2023-05-07T00:43:40;5.68;;;1.83;;
77984;SDS011;67177;47.240;-1.546;2023-05-07T00:46:05;5.67;;;1.63;;
77984;SDS011;67177;47.240;-1.546;2023-05-07T00:48:31;5.07;;;1.65;;
77984;SDS011;67177;47.240;-1.546;2023-05-07T00:50:57;4.70;;;1.40;;
77984;SDS011;67177;47.240;-1.546;2023-05-07T00:53:23;5.22;;;1.40;;
77984;SDS011;67177;47.240;-1.546;2023-05-07T00:55:48;6.20;;;1.57;;
77984;SDS011;67177;47.240;-1.546;2023-05-07T00:58:14;7.70;;;2.00;;
77984;SDS011;67177;47.240;-1.546;2023-05-07T01:00:40;5.90;;;1.80;;
77984;SDS011;67177;47.240;-1.546;2023-05-07T01:03:06;6.03;;;1.90;;
77984;SDS011;67177;47.240;-1.546;2023-05-07T01:05:32;5.75;;;1.90;;
77984;SDS011;67177;47.240;-1.546;2023-05-07T01:07:58;5.68;;;2.15;;
77984;SDS011;67177;47.240;-1.546;2023-05-07T01:10:24;7.50;;;1.97;;
77984;SDS011;67177;47.240;-1.546;2023-05-07T01:12:50;6.53;;;2.03;;
77984;SDS011;67177;47.240;-1.546;2023-05-07T01:15:17;7.63;;;2.58;;
77984;SDS011;67177;47.240;-1.546;2023-05-07T01:17:43;5.78;;;1.90;;
77984;SDS011;67177;47.240;-1.546;2023-05-07T01:20:09;5.82;;;1.90;;
77984;SDS011;67177;47.240;-1.546;2023-05-07T01:22:38;4.90;;;1.63;;
77984;SDS011;67177;47.240;-1.546;2023-05-07T01:25:05;5.72;;;1.60;;
77984;SDS011;67177;47.240;-1.546;2023-05-07T01:27:32;4.75;;;1.60;;
77984;SDS011;67177;47.240;-1.546;2023-05-07T01:30:02;5.50;;;1.60;;
77984;SDS011;67177;47.240;-1.546;2023-05-07T01:32:33;4.95;;;1.58;;
77984;SDS011;67177;47.240;-1.546;2023-05-07T01:35:13;4.23;;;1.43;;
77984;SDS011;67177;47.240;-1.546;2023-05-07T01:37:44;5.50;;;1.58;;
77984;SDS011;67177;47.240;-1.546;2023-05-07T01:40:10;4.78;;;1.50;;
77984;SDS011;67177;47.240;-1.546;2023-05-07T01:42:36;7.10;;;1.85;;
77984;SDS011;67177;47.240;-1.546;2023-05-07T01:45:02;7.27;;;1.87;;
77984;SDS011;67177;47.240;-1.546;2023-05-07T01:47:28;4.57;;;1.60;;
77984;SDS011;67177;47.240;-1.546;2023-05-07T01:49:55;7.90;;;2.22;;
77984;SDS011;67177;47.240;-1.546;2023-05-07T01:52:22;5.13;;;1.70;;
77984;SDS011;67177;47.240;-1.546;2023-05-07T01:54:47;4.50;;;1.40;;
77984;SDS011;67177;47.240;-1.546;2023-05-07T01:57:13;4.75;;;1.65;;
77984;SDS011;67177;47.240;-1.546;2023-05-07T01:59:39;6.63;;;1.60;;
77984;SDS011;67177;47.240;-1.546;2023-05-07T02:02:04;4.60;;;1.40;;
77984;SDS011;67177;47.240;-1.546;2023-05-07T02:04:30;5.90;;;1.38;;
77984;SDS011;67177;47.240;-1.546;2023-05-07T02:06:55;5.67;;;1.70;;
77984;SDS011;67177;47.240;-1.546;2023-05-07T02:09:21;5.60;;;1.60;;
77984;SDS011;67177;47.240;-1.546;2023-05-07T02:11:48;3.90;;;1.20;;
77984;SDS011;67177;47.240;-1.546;2023-05-07T02:14:13;3.75;;;1.15;;
77984;SDS011;67177;47.240;-1.546;2023-05-07T02:16:39;5.35;;;1.60;;
77984;SDS011;67177;47.240;-1.546;2023-05-07T02:19:05;5.67;;;1.57;;
77984;SDS011;67177;47.240;-1.546;2023-05-07T02:21:30;5.07;;;1.23;;
77984;SDS011;67177;47.240;-1.546;2023-05-07T02:23:56;4.55;;;1.10;;
77984;SDS011;67177;47.240;-1.546;2023-05-07T02:26:22;3.67;;;1.20;;
77984;SDS011;67177;47.240;-1.546;2023-05-07T02:28:47;4.00;;;1.23;;
77984;SDS011;67177;47.240;-1.546;2023-05-07T02:31:13;3.40;;;1.00;;
77984;SDS011;67177;47.240;-1.546;2023-05-07T02:33:39;2.97;;;0.90;;
77984;SDS011;67177;47.240;-1.546;2023-05-07T02:36:05;3.37;;;1.00;;
77984;SDS011;67177;47.240;-1.546;2023-05-07T02:38:32;4.05;;;0.95;;
77984;SDS011;67177;47.240;-1.546;2023-05-07T02:40:58;3.70;;;0.70;;
77984;SDS011;67177;47.240;-1.546;2023-05-07T02:43:23;3.23;;;0.90;;
77984;SDS011;67177;47.240;-1.546;2023-05-07T02:45:59;2.55;;;0.80;;
77984;SDS011;67177;47.240;-1.546;2023-05-07T02:48:26;2.42;;;0.70;;
77984;SDS011;67177;47.240;-1.546;2023-05-07T02:50:52;3.07;;;0.80;;
77984;SDS011;67177;47.240;-1.546;2023-05-07T02:53:17;2.60;;;0.70;;
77984;SDS011;67177;47.240;-1.546;2023-05-07T02:55:43;2.93;;;0.87;;
77984;SDS011;67177;47.240;-1.546;2023-05-07T02:58:09;2.00;;;0.60;;
77984;SDS011;67177;47.240;-1.546;2023-05-07T03:00:34;2.85;;;0.70;;
77984;SDS011;67177;47.240;-1.546;2023-05-07T03:03:00;2.80;;;0.80;;
77984;SDS011;67177;47.240;-1.546;2023-05-07T03:05:26;2.10;;;0.65;;
77984;SDS011;67177;47.240;-1.546;2023-05-07T03:07:51;2.90;;;0.80;;
77984;SDS011;67177;47.240;-1.546;2023-05-07T03:10:17;2.05;;;0.65;;
77984;SDS011;67177;47.240;-1.546;2023-05-07T03:12:43;2.80;;;0.77;;
77984;SDS011;67177;47.240;-1.546;2023-05-07T03:15:09;2.13;;;0.68;;
77984;SDS011;67177;47.240;-1.546;2023-05-07T03:17:37;2.50;;;0.60;;
77984;SDS011;67177;47.240;-1.546;2023-05-07T03:20:03;2.07;;;0.60;;
77984;SDS011;67177;47.240;-1.546;2023-05-07T03:22:29;1.52;;;0.50;;
77984;SDS011;67177;47.240;-1.546;2023-05-07T03:24:55;2.72;;;0.77;;
77984;SDS011;67177;47.240;-1.546;2023-05-07T03:27:21;2.67;;;0.73;;
77984;SDS011;67177;47.240;-1.546;2023-05-07T03:29:46;3.10;;;0.80;;
77984;SDS011;67177;47.240;-1.546;2023-05-07T03:32:12;4.00;;;1.10;;
77984;SDS011;67177;47.240;-1.546;2023-05-07T03:34:38;3.67;;;1.00;;
77984;SDS011;67177;47.240;-1.546;2023-05-07T03:37:04;4.17;;;1.20;;
77984;SDS011;67177;47.240;-1.546;2023-05-07T03:39:29;4.40;;;1.17;;
77984;SDS011;67177;47.240;-1.546;2023-05-07T03:41:55;4.57;;;1.20;;
77984;SDS011;67177;47.240;-1.546;2023-05-07T03:44:21;4.15;;;1.20;;
77984;SDS011;67177;47.240;-1.546;2023-05-07T03:46:47;5.40;;;1.20;;
77984;SDS011;67177;47.240;-1.546;2023-05-07T03:49:12;4.65;;;1.50;;
77984;SDS011;67177;47.240;-1.546;2023-05-07T03:51:38;4.35;;;1.20;;
77984;SDS011;67177;47.240;-1.546;2023-05-07T03:54:04;4.90;;;1.40;;
77984;SDS011;67177;47.240;-1.546;2023-05-07T03:56:29;4.40;;;1.50;;
77984;SDS011;67177;47.240;-1.546;2023-05-07T03:58:56;5.27;;;1.93;;
77984;SDS011;67177;47.240;-1.546;2023-05-07T04:01:21;6.28;;;1.67;;
77984;SDS011;67177;47.240;-1.546;2023-05-07T04:03:47;6.63;;;1.70;;
77984;SDS011;67177;47.240;-1.546;2023-05-07T04:06:13;4.60;;;1.35;;
77984;SDS011;67177;47.240;-1.546;2023-05-07T04:08:38;4.10;;;1.37;;
77984;SDS011;67177;47.240;-1.546;2023-05-07T04:11:04;4.00;;;1.10;;
77984;SDS011;67177;47.240;-1.546;2023-05-07T04:13:30;8.13;;;1.70;;
77984;SDS011;67177;47.240;-1.546;2023-05-07T04:15:56;5.75;;;1.70;;
77984;SDS011;67177;47.240;-1.546;2023-05-07T04:18:21;6.13;;;1.70;;
77984;SDS011;67177;47.240;-1.546;2023-05-07T04:20:47;5.97;;;1.52;;
77984;SDS011;67177;47.240;-1.546;2023-05-07T04:23:16;4.77;;;1.40;;
77984;SDS011;67177;47.240;-1.546;2023-05-07T04:25:42;5.93;;;1.50;;
77984;SDS011;67177;47.240;-1.546;2023-05-07T04:28:07;4.43;;;1.60;;
77984;SDS011;67177;47.240;-1.546;2023-05-07T04:30:33;6.40;;;1.50;;
77984;SDS011;67177;47.240;-1.546;2023-05-07T04:32:59;4.17;;;1.27;;
77984;SDS011;67177;47.240;-1.546;2023-05-07T04:35:25;5.53;;;1.60;;
77984;SDS011;67177;47.240;-1.546;2023-05-07T04:37:50;5.23;;;1.60;;
77984;SDS011;67177;47.240;-1.546;2023-05-07T04:40:16;4.10;;;1.40;;
77984;SDS011;67177;47.240;-1.546;2023-05-07T04:42:41;3.57;;;1.10;;
77984;SDS011;67177;47.240;-1.546;2023-05-07T04:45:07;4.88;;;1.30;;
77984;SDS011;67177;47.240;-1.546;2023-05-07T04:47:35;4.80;;;1.40;;
77984;SDS011;67177;47.240;-1.546;2023-05-07T04:50:01;4.20;;;1.40;;
77984;SDS011;67177;47.240;-1.546;2023-05-07T04:52:26;3.88;;;1.20;;
77984;SDS011;67177;47.240;-1.546;2023-05-07T04:54:52;4.57;;;1.25;;
77984;SDS011;67177;47.240;-1.546;2023-05-07T04:57:18;5.47;;;1.53;;
77984;SDS011;67177;47.240;-1.546;2023-05-07T04:59:44;5.50;;;1.40;;
77984;SDS011;67177;47.240;-1.546;2023-05-07T05:02:10;6.57;;;1.90;;
77984;SDS011;67177;47.240;-1.546;2023-05-07T05:04:36;4.13;;;1.50;;
77984;SDS011;67177;47.240;-1.546;2023-05-07T05:07:02;5.38;;;1.67;;
77984;SDS011;67177;47.240;-1.546;2023-05-07T05:09:31;3.90;;;1.40;;
77984;SDS011;67177;47.240;-1.546;2023-05-07T05:11:56;4.83;;;1.40;;
77984;SDS011;67177;47.240;-1.546;2023-05-07T05:14:22;4.55;;;1.50;;
77984;SDS011;67177;47.240;-1.546;2023-05-07T05:16:48;4.97;;;1.50;;
77984;SDS011;67177;47.240;-1.546;2023-05-07T05:19:13;4.18;;;1.55;;
77984;SDS011;67177;47.240;-1.546;2023-05-07T05:21:39;3.95;;;1.10;;
77984;SDS011;67177;47.240;-1.546;2023-05-07T05:24:05;4.43;;;1.30;;
77984;SDS011;67177;47.240;-1.546;2023-05-07T05:26:31;5.27;;;1.40;;
77984;SDS011;67177;47.240;-1.546;2023-05-07T05:28:56;4.13;;;1.20;;
77984;SDS011;67177;47.240;-1.546;2023-05-07T05:31:22;3.43;;;1.10;;
77984;SDS011;67177;47.240;-1.546;2023-05-07T05:33:48;3.58;;;1.20;;
77984;SDS011;67177;47.240;-1.546;2023-05-07T05:36:13;4.05;;;0.93;;
77984;SDS011;67177;47.240;-1.546;2023-05-07T05:38:39;3.87;;;1.17;;
77984;SDS011;67177;47.240;-1.546;2023-05-07T05:41:05;5.75;;;1.50;;
77984;SDS011;67177;47.240;-1.546;2023-05-07T05:43:30;4.30;;;1.50;;
77984;SDS011;67177;47.240;-1.546;2023-05-07T05:45:56;4.03;;;1.30;;
77984;SDS011;67177;47.240;-1.546;2023-05-07T05:48:23;5.28;;;1.60;;
77984;SDS011;67177;47.240;-1.546;2023-05-07T05:50:48;4.57;;;1.70;;
77984;SDS011;67177;47.240;-1.546;2023-05-07T05:53:14;4.90;;;1.90;;
77984;SDS011;67177;47.240;-1.546;2023-05-07T05:55:41;5.60;;;2.08;;
77984;SDS011;67177;47.240;-1.546;2023-05-07T05:58:07;5.23;;;2.07;;
77984;SDS011;67177;47.240;-1.546;2023-05-07T06:00:32;4.85;;;1.70;;
77984;SDS011;67177;47.240;-1.546;2023-05-07T06:02:58;4.30;;;1.60;;
77984;SDS011;67177;47.240;-1.546;2023-05-07T06:05:24;3.70;;;1.40;;
77984;SDS011;67177;47.240;-1.546;2023-05-07T06:07:49;3.70;;;1.30;;
77984;SDS011;67177;47.240;-1.546;2023-05-07T06:10:15;4.55;;;1.35;;
77984;SDS011;67177;47.240;-1.546;2023-05-07T06:12:40;4.70;;;1.30;;
77984;SDS011;67177;47.240;-1.546;2023-05-07T06:15:06;3.50;;;1.10;;
77984;SDS011;67177;47.240;-1.546;2023-05-07T06:17:32;3.83;;;1.00;;
77984;SDS011;67177;47.240;-1.546;2023-05-07T06:19:58;3.88;;;0.90;;
77984;SDS011;67177;47.240;-1.546;2023-05-07T06:22:23;2.57;;;0.80;;
77984;SDS011;67177;47.240;-1.546;2023-05-07T06:24:49;2.53;;;0.60;;
77984;SDS011;67177;47.240;-1.546;2023-05-07T06:27:14;3.47;;;0.80;;
77984;SDS011;67177;47.240;-1.546;2023-05-07T06:29:40;2.90;;;0.80;;
77984;SDS011;67177;47.240;-1.546;2023-05-07T06:32:06;2.67;;;0.70;;
77984;SDS011;67177;47.240;-1.546;2023-05-07T06:34:36;1.90;;;0.60;;
77984;SDS011;67177;47.240;-1.546;2023-05-07T06:37:02;2.10;;;0.65;;
77984;SDS011;67177;47.240;-1.546;2023-05-07T06:39:28;2.30;;;0.70;;
77984;SDS011;67177;47.240;-1.546;2023-05-07T06:41:54;2.13;;;0.70;;
77984;SDS011;67177;47.240;-1.546;2023-05-07T06:44:19;2.13;;;0.70;;
77984;SDS011;67177;47.240;-1.546;2023-05-07T06:46:45;2.40;;;0.70;;
77984;SDS011;67177;47.240;-1.546;2023-05-07T06:49:14;1.85;;;0.60;;
77984;SDS011;67177;47.240;-1.546;2023-05-07T06:51:40;3.17;;;0.80;;
77984;SDS011;67177;47.240;-1.546;2023-05-07T06:54:06;2.72;;;0.70;;
77984;SDS011;67177;47.240;-1.546;2023-05-07T06:56:32;2.28;;;0.70;;
77984;SDS011;67177;47.240;-1.546;2023-05-07T06:58:59;2.45;;;0.80;;
77984;SDS011;67177;47.240;-1.546;2023-05-07T07:01:25;2.80;;;0.80;;
77984;SDS011;67177;47.240;-1.546;2023-05-07T07:03:51;2.72;;;0.90;;
77984;SDS011;67177;47.240;-1.546;2023-05-07T07:06:17;2.77;;;0.90;;
77984;SDS011;67177;47.240;-1.546;2023-05-07T07:08:42;3.20;;;0.88;;
77984;SDS011;67177;47.240;-1.546;2023-05-07T07:11:08;3.38;;;1.10;;
77984;SDS011;67177;47.240;-1.546;2023-05-07T07:13:35;5.00;;;1.80;;
77984;SDS011;67177;47.240;-1.546;2023-05-07T07:16:00;4.72;;;1.65;;
77984;SDS011;67177;47.240;-1.546;2023-05-07T07:18:26;4.63;;;1.70;;
77984;SDS011;67177;47.240;-1.546;2023-05-07T07:20:52;4.20;;;1.60;;
77984;SDS011;67177;47.240;-1.546;2023-05-07T07:23:18;4.53;;;1.55;;
77984;SDS011;67177;47.240;-1.546;2023-05-07T07:25:44;4.97;;;1.87;;
77984;SDS011;67177;47.240;-1.546;2023-05-07T07:28:09;4.38;;;1.52;;
77984;SDS011;67177;47.240;-1.546;2023-05-07T07:30:36;4.93;;;1.90;;
77984;SDS011;67177;47.240;-1.546;2023-05-07T07:33:02;5.03;;;1.85;;
77984;SDS011;67177;47.240;-1.546;2023-05-07T07:35:30;4.70;;;2.03;;
77984;SDS011;67177;47.240;-1.546;2023-05-07T07:37:56;4.80;;;2.10;;
77984;SDS011;67177;47.240;-1.546;2023-05-07T07:40:22;4.60;;;1.70;;
77984;SDS011;67177;47.240;-1.546;2023-05-07T07:42:48;4.28;;;1.70;;
77984;SDS011;67177;47.240;-1.546;2023-05-07T07:45:14;4.00;;;1.65;;
77984;SDS011;67177;47.240;-1.546;2023-05-07T07:47:40;4.10;;;1.60;;
77984;SDS011;67177;47.240;-1.546;2023-05-07T07:50:06;4.18;;;1.50;;
77984;SDS011;67177;47.240;-1.546;2023-05-07T07:52:32;4.03;;;1.65;;
77984;SDS011;67177;47.240;-1.546;2023-05-07T07:54:58;3.90;;;1.47;;
77984;SDS011;67177;47.240;-1.546;2023-05-07T07:57:24;3.80;;;1.42;;
77984;SDS011;67177;47.240;-1.546;2023-05-07T07:59:50;4.13;;;1.70;;
77984;SDS011;67177;47.240;-1.546;2023-05-07T08:02:16;4.55;;;1.50;;
77984;SDS011;67177;47.240;-1.546;2023-05-07T08:04:42;4.07;;;1.60;;
77984;SDS011;67177;47.240;-1.546;2023-05-07T08:07:10;5.38;;;1.63;;
77984;SDS011;67177;47.240;-1.546;2023-05-07T08:09:38;4.20;;;1.70;;
77984;SDS011;67177;47.240;-1.546;2023-05-07T08:12:05;4.30;;;1.90;;
77984;SDS011;67177;47.240;-1.546;2023-05-07T08:14:31;4.13;;;1.67;;
77984;SDS011;67177;47.240;-1.546;2023-05-07T08:16:57;4.00;;;1.60;;
77984;SDS011;67177;47.240;-1.546;2023-05-07T08:19:23;4.03;;;1.40;;
77984;SDS011;67177;47.240;-1.546;2023-05-07T08:21:49;4.20;;;1.80;;
77984;SDS011;67177;47.240;-1.546;2023-05-07T08:24:15;4.00;;;1.60;;
77984;SDS011;67177;47.240;-1.546;2023-05-07T08:26:41;4.30;;;1.70;;
77984;SDS011;67177;47.240;-1.546;2023-05-07T08:29:08;4.10;;;1.70;;
77984;SDS011;67177;47.240;-1.546;2023-05-07T08:31:33;4.07;;;1.80;;
77984;SDS011;67177;47.240;-1.546;2023-05-07T08:33:59;4.30;;;1.92;;
77984;SDS011;67177;47.240;-1.546;2023-05-07T08:36:25;4.57;;;2.22;;
77984;SDS011;67177;47.240;-1.546;2023-05-07T08:38:50;4.20;;;1.90;;
77984;SDS011;67177;47.240;-1.546;2023-05-07T08:41:17;4.57;;;2.10;;
77984;SDS011;67177;47.240;-1.546;2023-05-07T08:43:43;4.82;;;1.90;;
77984;SDS011;67177;47.240;-1.546;2023-05-07T08:46:16;4.05;;;1.63;;
77984;SDS011;67177;47.240;-1.546;2023-05-07T08:48:49;4.20;;;2.00;;
77984;SDS011;67177;47.240;-1.546;2023-05-07T08:51:17;4.00;;;1.80;;
77984;SDS011;67177;47.240;-1.546;2023-05-07T08:53:45;4.53;;;2.03;;
77984;SDS011;67177;47.240;-1.546;2023-05-07T08:56:13;3.88;;;1.70;;
77984;SDS011;67177;47.240;-1.546;2023-05-07T08:58:40;4.43;;;1.95;;
77984;SDS011;67177;47.240;-1.546;2023-05-07T09:01:07;4.18;;;1.80;;
77984;SDS011;67177;47.240;-1.546;2023-05-07T09:03:36;3.97;;;1.73;;
77984;SDS011;67177;47.240;-1.546;2023-05-07T09:06:03;3.80;;;1.60;;
77984;SDS011;67177;47.240;-1.546;2023-05-07T09:08:29;3.05;;;1.10;;
77984;SDS011;67177;47.240;-1.546;2023-05-07T09:10:57;3.92;;;1.58;;
77984;SDS011;67177;47.240;-1.546;2023-05-07T09:13:23;3.60;;;1.57;;
77984;SDS011;67177;47.240;-1.546;2023-05-07T09:15:48;3.53;;;1.58;;
77984;SDS011;67177;47.240;-1.546;2023-05-07T09:18:14;3.30;;;1.40;;
77984;SDS011;67177;47.240;-1.546;2023-05-07T09:20:40;3.30;;;1.30;;
77984;SDS011;67177;47.240;-1.546;2023-05-07T09:23:06;3.83;;;1.57;;
77984;SDS011;67177;47.240;-1.546;2023-05-07T09:25:33;4.13;;;1.83;;
77984;SDS011;67177;47.240;-1.546;2023-05-07T09:28:00;3.97;;;1.60;;
77984;SDS011;67177;47.240;-1.546;2023-05-07T09:30:33;4.05;;;1.90;;
77984;SDS011;67177;47.240;-1.546;2023-05-07T09:33:00;3.80;;;1.70;;
77984;SDS011;67177;47.240;-1.546;2023-05-07T09:35:26;4.35;;;1.80;;
77984;SDS011;67177;47.240;-1.546;2023-05-07T09:37:53;4.05;;;1.77;;
77984;SDS011;67177;47.240;-1.546;2023-05-07T09:40:24;3.80;;;1.70;;
77984;SDS011;67177;47.240;-1.546;2023-05-07T09:42:51;3.78;;;1.70;;
77984;SDS011;67177;47.240;-1.546;2023-05-07T09:45:24;4.10;;;1.65;;
77984;SDS011;67177;47.240;-1.546;2023-05-07T09:47:54;4.00;;;1.70;;
77984;SDS011;67177;47.240;-1.546;2023-05-07T09:50:27;4.00;;;1.80;;
77984;SDS011;67177;47.240;-1.546;2023-05-07T09:52:55;3.70;;;1.40;;
77984;SDS011;67177;47.240;-1.546;2023-05-07T09:55:22;3.70;;;1.40;;
77984;SDS011;67177;47.240;-1.546;2023-05-07T09:57:52;3.50;;;1.40;;
77984;SDS011;67177;47.240;-1.546;2023-05-07T10:00:19;3.50;;;1.35;;
77984;SDS011;67177;47.240;-1.546;2023-05-07T10:02:46;4.15;;;1.50;;
77984;SDS011;67177;47.240;-1.546;2023-05-07T10:05:20;3.72;;;1.55;;
77984;SDS011;67177;47.240;-1.546;2023-05-07T10:07:47;3.08;;;1.20;;
77984;SDS011;67177;47.240;-1.546;2023-05-07T10:10:13;3.60;;;1.35;;
77984;SDS011;67177;47.240;-1.546;2023-05-07T10:12:40;3.85;;;1.40;;
77984;SDS011;67177;47.240;-1.546;2023-05-07T10:15:07;3.58;;;1.40;;
77984;SDS011;67177;47.240;-1.546;2023-05-07T10:17:39;3.58;;;1.30;;
77984;SDS011;67177;47.240;-1.546;2023-05-07T10:20:06;3.50;;;1.27;;
77984;SDS011;67177;47.240;-1.546;2023-05-07T10:22:33;3.55;;;1.05;;
77984;SDS011;67177;47.240;-1.546;2023-05-07T10:25:06;3.90;;;1.20;;
77984;SDS011;67177;47.240;-1.546;2023-05-07T10:27:39;3.25;;;1.20;;
77984;SDS011;67177;47.240;-1.546;2023-05-07T10:30:10;3.08;;;1.10;;
77984;SDS011;67177;47.240;-1.546;2023-05-07T10:32:47;2.70;;;1.00;;
77984;SDS011;67177;47.240;-1.546;2023-05-07T10:35:26;2.90;;;1.00;;
77984;SDS011;67177;47.240;-1.546;2023-05-07T10:37:55;2.70;;;0.90;;
77984;SDS011;67177;47.240;-1.546;2023-05-07T10:40:21;3.50;;;1.00;;
77984;SDS011;67177;47.240;-1.546;2023-05-07T10:43:19;3.00;;;1.10;;
77984;SDS011;67177;47.240;-1.546;2023-05-07T10:45:38;3.15;;;1.20;;
77984;SDS011;67177;47.240;-1.546;2023-05-07T10:48:07;3.38;;;1.10;;
77984;SDS011;67177;47.240;-1.546;2023-05-07T10:50:37;4.50;;;1.80;;
77984;SDS011;67177;47.240;-1.546;2023-05-07T10:55:42;6.35;;;2.97;;
77984;SDS011;67177;47.240;-1.546;2023-05-07T11:00:48;6.43;;;3.40;;
77984;SDS011;67177;47.240;-1.546;2023-05-07T11:03:14;5.63;;;2.80;;
77984;SDS011;67177;47.240;-1.546;2023-05-07T11:05:40;5.68;;;2.70;;
77984;SDS011;67177;47.240;-1.546;2023-05-07T11:08:07;4.60;;;2.30;;
77984;SDS011;67177;47.240;-1.546;2023-05-07T11:10:52;4.70;;;1.88;;
77984;SDS011;67177;47.240;-1.546;2023-05-07T11:19:03;3.55;;;1.20;;
77984;SDS011;67177;47.240;-1.546;2023-05-07T11:21:35;3.42;;;1.13;;
77984;SDS011;67177;47.240;-1.546;2023-05-07T11:24:01;3.20;;;1.05;;
77984;SDS011;67177;47.240;-1.546;2023-05-07T11:26:29;2.88;;;0.95;;
77984;SDS011;67177;47.240;-1.546;2023-05-07T11:28:56;3.22;;;1.00;;
77984;SDS011;67177;47.240;-1.546;2023-05-07T11:31:23;2.60;;;0.80;;
77984;SDS011;67177;47.240;-1.546;2023-05-07T11:33:52;3.25;;;0.88;;
77984;SDS011;67177;47.240;-1.546;2023-05-07T11:36:18;2.33;;;0.73;;
77984;SDS011;67177;47.240;-1.546;2023-05-07T11:38:45;3.20;;;0.98;;
77984;SDS011;67177;47.240;-1.546;2023-05-07T11:41:11;3.28;;;0.60;;
77984;SDS011;67177;47.240;-1.546;2023-05-07T11:43:37;2.42;;;0.70;;
77984;SDS011;67177;47.240;-1.546;2023-05-07T11:46:07;2.58;;;0.80;;
77984;SDS011;67177;47.240;-1.546;2023-05-07T11:48:34;2.55;;;0.80;;
77984;SDS011;67177;47.240;-1.546;2023-05-07T11:51:01;3.03;;;0.80;;
77984;SDS011;67177;47.240;-1.546;2023-05-07T11:53:38;2.90;;;0.70;;
77984;SDS011;67177;47.240;-1.546;2023-05-07T11:56:08;1.98;;;0.60;;
77984;SDS011;67177;47.240;-1.546;2023-05-07T11:58:39;2.65;;;0.70;;
77984;SDS011;67177;47.240;-1.546;2023-05-07T12:01:06;3.60;;;0.68;;
77984;SDS011;67177;47.240;-1.546;2023-05-07T12:03:34;3.28;;;0.73;;
77984;SDS011;67177;47.240;-1.546;2023-05-07T12:06:02;3.00;;;0.80;;
77984;SDS011;67177;47.240;-1.546;2023-05-07T12:08:30;2.95;;;0.80;;
77984;SDS011;67177;47.240;-1.546;2023-05-07T12:10:55;2.73;;;0.70;;
77984;SDS011;67177;47.240;-1.546;2023-05-07T12:13:22;3.13;;;0.70;;
77984;SDS011;67177;47.240;-1.546;2023-05-07T12:15:53;2.60;;;0.80;;
77984;SDS011;67177;47.240;-1.546;2023-05-07T12:18:20;2.30;;;0.60;;
77984;SDS011;67177;47.240;-1.546;2023-05-07T12:20:46;2.47;;;0.80;;
77984;SDS011;67177;47.240;-1.546;2023-05-07T12:23:13;2.97;;;0.80;;
77984;SDS011;67177;47.240;-1.546;2023-05-07T12:25:39;2.90;;;0.80;;
77984;SDS011;67177;47.240;-1.546;2023-05-07T12:28:14;2.67;;;0.80;;
77984;SDS011;67177;47.240;-1.546;2023-05-07T12:30:44;2.45;;;0.70;;
77984;SDS011;67177;47.240;-1.546;2023-05-07T12:33:11;2.50;;;0.80;;
77984;SDS011;67177;47.240;-1.546;2023-05-07T12:35:41;2.20;;;0.60;;
77984;SDS011;67177;47.240;-1.546;2023-05-07T12:38:12;2.45;;;0.80;;
77984;SDS011;67177;47.240;-1.546;2023-05-07T12:40:44;2.67;;;0.70;;
77984;SDS011;67177;47.240;-1.546;2023-05-07T12:45:44;3.10;;;0.70;;
77984;SDS011;67177;47.240;-1.546;2023-05-07T12:48:11;3.70;;;0.80;;
77984;SDS011;67177;47.240;-1.546;2023-05-07T12:50:37;3.08;;;0.90;;
77984;SDS011;67177;47.240;-1.546;2023-05-07T12:53:04;2.40;;;0.80;;
77984;SDS011;67177;47.240;-1.546;2023-05-07T12:55:43;3.42;;;0.80;;
77984;SDS011;67177;47.240;-1.546;2023-05-07T13:00:43;3.80;;;1.10;;
77984;SDS011;67177;47.240;-1.546;2023-05-07T13:03:10;4.27;;;0.90;;
77984;SDS011;67177;47.240;-1.546;2023-05-07T13:05:36;3.25;;;0.90;;
77984;SDS011;67177;47.240;-1.546;2023-05-07T13:08:02;2.90;;;1.00;;
77984;SDS011;67177;47.240;-1.546;2023-05-07T13:10:29;2.53;;;0.80;;
77984;SDS011;67177;47.240;-1.546;2023-05-07T13:12:54;2.93;;;0.90;;
77984;SDS011;67177;47.240;-1.546;2023-05-07T13:15:20;2.28;;;0.80;;
77984;SDS011;67177;47.240;-1.546;2023-05-07T13:17:46;3.05;;;0.93;;
77984;SDS011;67177;47.240;-1.546;2023-05-07T13:20:12;2.92;;;0.90;;
77984;SDS011;67177;47.240;-1.546;2023-05-07T13:22:39;2.73;;;1.00;;
77984;SDS011;67177;47.240;-1.546;2023-05-07T13:25:05;2.53;;;0.82;;
77984;SDS011;67177;47.240;-1.546;2023-05-07T13:27:31;2.22;;;0.68;;
77984;SDS011;67177;47.240;-1.546;2023-05-07T13:29:57;2.38;;;0.70;;
77984;SDS011;67177;47.240;-1.546;2023-05-07T13:32:22;2.90;;;0.80;;
77984;SDS011;67177;47.240;-1.546;2023-05-07T13:34:48;2.13;;;0.70;;
77984;SDS011;67177;47.240;-1.546;2023-05-07T13:37:14;2.97;;;0.82;;
77984;SDS011;67177;47.240;-1.546;2023-05-07T13:39:39;2.53;;;0.80;;
77984;SDS011;67177;47.240;-1.546;2023-05-07T13:42:06;2.40;;;0.70;;
77984;SDS011;67177;47.240;-1.546;2023-05-07T13:44:31;1.73;;;0.60;;
77984;SDS011;67177;47.240;-1.546;2023-05-07T13:46:57;2.33;;;0.73;;
77984;SDS011;67177;47.240;-1.546;2023-05-07T13:49:23;2.58;;;0.70;;
77984;SDS011;67177;47.240;-1.546;2023-05-07T13:51:49;1.92;;;0.70;;
77984;SDS011;67177;47.240;-1.546;2023-05-07T13:54:14;2.00;;;0.68;;
77984;SDS011;67177;47.240;-1.546;2023-05-07T13:56:40;2.03;;;0.70;;
77984;SDS011;67177;47.240;-1.546;2023-05-07T13:59:06;2.03;;;0.60;;
77984;SDS011;67177;47.240;-1.546;2023-05-07T14:01:32;1.90;;;0.60;;
77984;SDS011;67177;47.240;-1.546;2023-05-07T14:03:58;2.30;;;0.60;;
77984;SDS011;67177;47.240;-1.546;2023-05-07T14:06:24;2.20;;;0.68;;
77984;SDS011;67177;47.240;-1.546;2023-05-07T14:08:50;2.72;;;0.70;;
77984;SDS011;67177;47.240;-1.546;2023-05-07T14:11:16;2.00;;;0.70;;
77984;SDS011;67177;47.240;-1.546;2023-05-07T14:13:42;2.45;;;0.70;;
77984;SDS011;67177;47.240;-1.546;2023-05-07T14:16:07;2.70;;;0.67;;
77984;SDS011;67177;47.240;-1.546;2023-05-07T14:18:33;2.55;;;0.60;;
77984;SDS011;67177;47.240;-1.546;2023-05-07T14:21:00;2.40;;;0.60;;
77984;SDS011;67177;47.240;-1.546;2023-05-07T14:23:25;1.63;;;0.50;;
77984;SDS011;67177;47.240;-1.546;2023-05-07T14:25:51;1.83;;;0.50;;
77984;SDS011;67177;47.240;-1.546;2023-05-07T14:28:18;1.70;;;0.50;;
77984;SDS011;67177;47.240;-1.546;2023-05-07T14:30:44;2.25;;;0.60;;
77984;SDS011;67177;47.240;-1.546;2023-05-07T14:33:09;2.33;;;0.70;;
77984;SDS011;67177;47.240;-1.546;2023-05-07T14:35:35;1.73;;;0.60;;
77984;SDS011;67177;47.240;-1.546;2023-05-07T14:38:01;2.15;;;0.70;;
77984;SDS011;67177;47.240;-1.546;2023-05-07T14:40:26;2.13;;;0.60;;
77984;SDS011;67177;47.240;-1.546;2023-05-07T14:42:52;2.65;;;0.60;;
77984;SDS011;67177;47.240;-1.546;2023-05-07T14:45:18;2.00;;;0.60;;
77984;SDS011;67177;47.240;-1.546;2023-05-07T14:47:43;1.90;;;0.70;;